Time;durP1;ratioP1;P1;durP2;ratioP2;P2;SDS_P1;SDS_P2;PMS_P1;PMS_P2;Temp;Humidity;BMP_temperature;BMP_pressure;BME280_temperature;BME280_humidity;BME280_pressure;Samples;Min_cycle;Max_cycle;Signal;HPM_P1;HPM_P2
2021/05/05 00:03:01;;;;;;;4.57;1.23;;;;;;;;;;10161816;28;20046;-58
2021/05/05 00:07:59;;;;;;;2.93;1.27;;;;;;;;;;10139517;28;20035;-64
2021/05/05 00:12:56;;;;;;;7.65;1.15;;;;;;;;;;10142000;28;21724;-58
2021/05/05 00:17:54;;;;;;;3.00;1.20;;;;;;;;;;10149077;28;20126;-59
2021/05/05 00:22:51;;;;;;;4.97;1.03;;;;;;;;;;10153671;28;20038;-62
2021/05/05 00:27:49;;;;;;;2.50;1.00;;;;;;;;;;10138557;28;20520;-58
2021/05/05 00:32:46;;;;;;;1.95;0.52;;;;;;;;;;10155801;28;20035;-61
2021/05/05 00:37:44;;;;;;;2.53;0.57;;;;;;;;;;10154160;28;20122;-62
2021/05/05 00:42:42;;;;;;;5.63;0.80;;;;;;;;;;10158286;28;20545;-60
2021/05/05 00:47:40;;;;;;;5.37;1.07;;;;;;;;;;10173963;28;20385;-60
2021/05/05 00:52:37;;;;;;;6.30;1.33;;;;;;;;;;10171459;28;20064;-60
2021/05/05 00:57:35;;;;;;;4.67;1.47;;;;;;;;;;10172107;28;20294;-62
2021/05/05 01:02:33;;;;;;;2.90;0.83;;;;;;;;;;10179660;28;20031;-62
2021/05/05 01:07:32;;;;;;;8.00;1.38;;;;;;;;;;10164514;28;20035;-60
2021/05/05 01:12:29;;;;;;;3.20;0.70;;;;;;;;;;10162755;28;20420;-61
2021/05/05 01:17:29;;;;;;;2.83;0.93;;;;;;;;;;10178104;28;20027;-62
2021/05/05 01:22:26;;;;;;;3.95;0.77;;;;;;;;;;10158078;28;20041;-59
2021/05/05 01:27:24;;;;;;;2.70;0.80;;;;;;;;;;10165565;28;20031;-59
2021/05/05 01:32:22;;;;;;;2.77;1.23;;;;;;;;;;10148358;28;20035;-60
2021/05/05 01:37:19;;;;;;;1.17;0.50;;;;;;;;;;10147775;28;20035;-60
2021/05/05 01:42:17;;;;;;;4.90;0.73;;;;;;;;;;10167135;28;20062;-59
2021/05/05 01:47:14;;;;;;;1.90;0.50;;;;;;;;;;10180653;28;20121;-62
2021/05/05 01:52:13;;;;;;;7.45;1.13;;;;;;;;;;10176622;28;20043;-63
2021/05/05 01:57:36;;;;;;;3.50;0.95;;;;;;;;;;10162655;28;20130;-62
2021/05/05 02:02:37;;;;;;;2.45;0.85;;;;;;;;;;10149423;28;20035;-61
2021/05/05 02:07:35;;;;;;;6.47;1.35;;;;;;;;;;10147250;28;20501;-59
2021/05/05 02:12:33;;;;;;;1.63;0.60;;;;;;;;;;10129542;28;20043;-61
2021/05/05 02:17:30;;;;;;;7.43;1.27;;;;;;;;;;10152756;28;20062;-61
2021/05/05 02:22:28;;;;;;;6.30;0.90;;;;;;;;;;10147857;28;20518;-59
2021/05/05 02:27:27;;;;;;;3.63;0.70;;;;;;;;;;10171963;28;20031;-61
2021/05/05 02:32:26;;;;;;;3.03;0.77;;;;;;;;;;10151936;28;20066;-62
2021/05/05 02:37:25;;;;;;;1.42;0.50;;;;;;;;;;10144134;28;20596;-62
2021/05/05 02:42:23;;;;;;;1.80;0.60;;;;;;;;;;10141999;28;20391;-61
2021/05/05 02:47:21;;;;;;;7.10;1.13;;;;;;;;;;10149631;28;20061;-60
2021/05/05 02:52:19;;;;;;;5.45;1.13;;;;;;;;;;10143231;28;20045;-60
2021/05/05 02:57:18;;;;;;;7.38;1.00;;;;;;;;;;10173895;28;20421;-60
2021/05/05 03:02:15;;;;;;;2.57;0.57;;;;;;;;;;10180684;28;20379;-60
2021/05/05 03:07:13;;;;;;;1.80;0.60;;;;;;;;;;10156531;28;20589;-62
2021/05/05 03:12:10;;;;;;;1.30;0.50;;;;;;;;;;10157071;28;20082;-61
2021/05/05 03:17:07;;;;;;;6.03;1.37;;;;;;;;;;10155950;28;20058;-61
2021/05/05 03:22:05;;;;;;;2.67;0.93;;;;;;;;;;10144999;28;20031;-61
2021/05/05 03:27:03;;;;;;;2.23;0.73;;;;;;;;;;10134034;28;20165;-57
2021/05/05 03:32:00;;;;;;;5.67;1.20;;;;;;;;;;10144826;28;20035;-57
2021/05/05 03:36:58;;;;;;;4.43;1.33;;;;;;;;;;10164954;28;20043;-61
2021/05/05 03:41:55;;;;;;;5.53;1.13;;;;;;;;;;10167408;28;20394;-63
2021/05/05 03:46:53;;;;;;;9.60;1.20;;;;;;;;;;10164062;28;20451;-61
2021/05/05 03:51:50;;;;;;;5.57;1.40;;;;;;;;;;10153967;28;20039;-65
2021/05/05 03:56:48;;;;;;;5.47;1.20;;;;;;;;;;10140825;28;20086;-62
2021/05/05 04:01:45;;;;;;;7.10;1.60;;;;;;;;;;10151279;28;20039;-60
2021/05/05 04:06:43;;;;;;;3.93;1.17;;;;;;;;;;10168264;28;20452;-62
2021/05/05 04:11:40;;;;;;;5.03;1.27;;;;;;;;;;10167736;28;20602;-61
2021/05/05 04:16:38;;;;;;;4.60;1.77;;;;;;;;;;10162198;28;20221;-62
2021/05/05 04:21:35;;;;;;;9.73;1.40;;;;;;;;;;10165542;28;20035;-61
2021/05/05 04:26:33;;;;;;;5.10;1.00;;;;;;;;;;10167426;28;20031;-63
2021/05/05 04:31:31;;;;;;;6.93;1.67;;;;;;;;;;10163365;28;20042;-62
2021/05/05 04:36:28;;;;;;;5.40;1.85;;;;;;;;;;10157772;28;20066;-62
2021/05/05 04:41:26;;;;;;;9.73;1.70;;;;;;;;;;10162655;28;20085;-61
2021/05/05 04:46:23;;;;;;;2.77;1.10;;;;;;;;;;10170002;28;20027;-61
2021/05/05 04:51:21;;;;;;;5.73;1.67;;;;;;;;;;10156019;28;20108;-59
2021/05/05 04:56:18;;;;;;;7.53;1.47;;;;;;;;;;10169320;28;20039;-63
2021/05/05 05:01:16;;;;;;;7.40;1.70;;;;;;;;;;10168501;28;20046;-64
2021/05/05 05:06:13;;;;;;;8.37;2.57;;;;;;;;;;10168840;28;20458;-56
2021/05/05 05:11:11;;;;;;;10.67;3.10;;;;;;;;;;10148904;28;20051;-59
2021/05/05 05:16:08;;;;;;;14.37;3.80;;;;;;;;;;10169744;28;20027;-59
2021/05/05 05:21:06;;;;;;;8.87;3.63;;;;;;;;;;10160970;28;20050;-63
2021/05/05 05:26:04;;;;;;;8.60;2.90;;;;;;;;;;10166301;28;20046;-59
2021/05/05 05:31:01;;;;;;;5.80;2.60;;;;;;;;;;10166910;28;20085;-62
2021/05/05 05:35:58;;;;;;;8.13;2.10;;;;;;;;;;10171945;28;20340;-63
2021/05/05 05:40:56;;;;;;;6.40;2.00;;;;;;;;;;10160896;28;20053;-60
2021/05/05 05:45:53;;;;;;;4.57;1.27;;;;;;;;;;10159520;28;20043;-62
2021/05/05 05:50:51;;;;;;;6.30;1.87;;;;;;;;;;10159946;28;20540;-62
2021/05/05 05:55:49;;;;;;;1.33;0.77;;;;;;;;;;10158296;28;20031;-61
2021/05/05 06:00:46;;;;;;;1.80;0.95;;;;;;;;;;10165930;28;20042;-63
2021/05/05 06:05:44;;;;;;;7.53;2.17;;;;;;;;;;10156748;28;20547;-63
2021/05/05 06:10:41;;;;;;;4.57;1.57;;;;;;;;;;10138986;28;20051;-60
2021/05/05 06:15:39;;;;;;;7.43;1.87;;;;;;;;;;10160028;28;20035;-63
2021/05/05 06:20:36;;;;;;;4.47;1.30;;;;;;;;;;10155585;28;20219;-60
2021/05/05 06:25:34;;;;;;;6.67;1.83;;;;;;;;;;10162764;28;20054;-57
2021/05/05 06:30:31;;;;;;;4.10;0.87;;;;;;;;;;10165077;28;20098;-60
2021/05/05 06:35:28;;;;;;;2.53;0.53;;;;;;;;;;10162376;28;20165;-59
2021/05/05 06:40:26;;;;;;;3.70;1.33;;;;;;;;;;10159651;28;20043;-60
2021/05/05 06:45:24;;;;;;;3.37;1.40;;;;;;;;;;10165102;28;20052;-60
2021/05/05 06:50:22;;;;;;;4.70;0.77;;;;;;;;;;10145225;28;20125;-62
2021/05/05 06:55:19;;;;;;;6.28;1.05;;;;;;;;;;10163748;28;20121;-62
2021/05/05 07:00:17;;;;;;;1.90;0.60;;;;;;;;;;10148413;28;20109;-62
2021/05/05 07:05:15;;;;;;;5.57;1.47;;;;;;;;;;10140368;28;20153;-64
2021/05/05 07:10:13;;;;;;;3.83;1.20;;;;;;;;;;10147659;28;20035;-60
2021/05/05 07:15:10;;;;;;;5.28;0.98;;;;;;;;;;10154584;28;20036;-62
2021/05/05 07:20:08;;;;;;;4.33;1.43;;;;;;;;;;10140193;28;20039;-59
2021/05/05 07:25:05;;;;;;;7.97;0.80;;;;;;;;;;10162726;28;20448;-60
2021/05/05 07:30:03;;;;;;;5.97;1.53;;;;;;;;;;10164837;28;20119;-61
2021/05/05 07:35:04;;;;;;;4.22;1.00;;;;;;;;;;10160365;28;20039;-62
2021/05/05 07:45:34;;;;;;;5.93;1.63;;;;;;;;;;10143234;28;20039;-63
2021/05/05 07:50:32;;;;;;;5.25;1.30;;;;;;;;;;10159727;28;20046;-61
2021/05/05 07:55:30;;;;;;;4.40;0.95;;;;;;;;;;10159916;28;20031;-61
2021/05/05 08:00:27;;;;;;;2.10;0.93;;;;;;;;;;10159902;28;20035;-61
2021/05/05 08:05:25;;;;;;;8.10;1.30;;;;;;;;;;10156646;28;20281;-63
2021/05/05 08:10:22;;;;;;;6.00;0.97;;;;;;;;;;10154351;28;20043;-61
2021/05/05 08:15:20;;;;;;;5.40;1.20;;;;;;;;;;10165526;28;20027;-62
2021/05/05 08:20:17;;;;;;;6.10;1.07;;;;;;;;;;10152311;28;20054;-61
2021/05/05 08:25:14;;;;;;;2.00;1.13;;;;;;;;;;10172380;28;20145;-59
2021/05/05 08:30:12;;;;;;;5.80;0.70;;;;;;;;;;10168219;28;20045;-64
2021/05/05 08:35:10;;;;;;;3.50;1.10;;;;;;;;;;10144304;28;20042;-62
2021/05/05 08:40:09;;;;;;;7.43;1.35;;;;;;;;;;10122929;28;20049;-61
2021/05/05 08:45:13;;;;;;;2.95;0.77;;;;;;;;;;10165289;28;20034;-61
2021/05/05 08:50:12;;;;;;;6.45;1.30;;;;;;;;;;10161829;28;20039;-62
2021/05/05 08:55:10;;;;;;;3.28;1.10;;;;;;;;;;10165609;28;20035;-63
2021/05/05 09:00:09;;;;;;;6.80;1.10;;;;;;;;;;10165531;28;20043;-62
2021/05/05 09:05:10;;;;;;;6.60;1.02;;;;;;;;;;10165115;28;20100;-62
2021/05/05 09:10:08;;;;;;;8.05;1.40;;;;;;;;;;10169531;28;20045;-61
2021/05/05 09:15:18;;;;;;;2.42;0.80;;;;;;;;;;10168050;28;20043;-62
2021/05/05 09:20:31;;;;;;;1.85;0.47;;;;;;;;;;10143033;28;20039;-61
2021/05/05 09:25:29;;;;;;;2.42;0.73;;;;;;;;;;10168094;28;20567;-61
2021/05/05 09:30:27;;;;;;;3.70;0.83;;;;;;;;;;10171292;28;20460;-60
2021/05/05 09:35:29;;;;;;;2.45;0.90;;;;;;;;;;10166440;28;20100;-65
2021/05/05 09:40:27;;;;;;;3.05;0.77;;;;;;;;;;10157596;28;20051;-61
2021/05/05 09:45:31;;;;;;;0.80;0.30;;;;;;;;;;10147432;28;20543;-62
2021/05/05 09:50:37;;;;;;;4.30;0.65;;;;;;;;;;10147722;28;20044;-62
2021/05/05 09:55:34;;;;;;;4.40;0.95;;;;;;;;;;10157428;28;20031;-62
2021/05/05 10:00:32;;;;;;;1.87;0.70;;;;;;;;;;10140008;28;20042;-61
2021/05/05 10:05:34;;;;;;;1.37;0.70;;;;;;;;;;10161647;28;20034;-63
2021/05/05 10:10:32;;;;;;;2.08;0.70;;;;;;;;;;10138271;28;20081;-62
2021/05/05 10:15:37;;;;;;;4.28;0.77;;;;;;;;;;10136168;28;20085;-63
2021/05/05 10:20:34;;;;;;;6.82;1.30;;;;;;;;;;10156801;28;20038;-60
2021/05/05 10:25:32;;;;;;;6.17;1.10;;;;;;;;;;10161082;28;20031;-64
2021/05/05 10:30:32;;;;;;;4.38;1.00;;;;;;;;;;10165880;28;20039;-63
2021/05/05 10:35:29;;;;;;;11.60;2.22;;;;;;;;;;10161639;28;20035;-61
2021/05/05 10:40:28;;;;;;;12.40;2.87;;;;;;;;;;10127320;28;20047;-61
2021/05/05 10:45:25;;;;;;;;;;;;;;;;;;10154701;28;20038;-62
2021/05/05 10:50:22;;;;;;;11.90;2.45;;;;;;;;;;10132449;28;19914;-60
2021/05/05 10:55:30;;;;;;;8.67;1.90;;;;;;;;;;10148578;28;20562;-62
2021/05/05 11:00:41;;;;;;;6.63;1.75;;;;;;;;;;10157084;28;20118;-62
2021/05/05 11:05:41;;;;;;;10.75;2.45;;;;;;;;;;10155652;28;20508;-59
2021/05/05 11:10:38;;;;;;;11.07;1.60;;;;;;;;;;10159424;28;20034;-61
2021/05/05 11:15:42;;;;;;;8.00;2.23;;;;;;;;;;10171259;28;20046;-61
2021/05/05 11:20:40;;;;;;;9.70;2.00;;;;;;;;;;10159794;28;20061;-61
2021/05/05 11:25:37;;;;;;;9.07;2.30;;;;;;;;;;10164780;28;20035;-64
2021/05/05 11:30:39;;;;;;;11.87;3.20;;;;;;;;;;10164423;28;20094;-63
2021/05/05 11:35:38;;;;;;;12.88;2.25;;;;;;;;;;10157509;28;20042;-64
2021/05/05 11:40:36;;;;;;;6.68;1.58;;;;;;;;;;10123016;28;20658;-61
2021/05/05 11:45:33;;;;;;;7.93;2.00;;;;;;;;;;10164454;28;20034;-63
2021/05/05 11:50:33;;;;;;;12.53;2.10;;;;;;;;;;10159999;28;20027;-61
2021/05/05 11:55:30;;;;;;;10.40;2.22;;;;;;;;;;10152941;28;20058;-63
2021/05/05 12:00:36;;;;;;;13.07;2.17;;;;;;;;;;10159754;28;20125;-60
2021/05/05 12:05:35;;;;;;;15.10;2.42;;;;;;;;;;10170619;28;20066;-61
2021/05/05 12:10:33;;;;;;;7.53;1.80;;;;;;;;;;10167057;28;20039;-62
2021/05/05 12:15:31;;;;;;;12.00;2.60;;;;;;;;;;10164270;28;20069;-62
2021/05/05 12:20:30;;;;;;;8.73;2.10;;;;;;;;;;10160893;28;20137;-61
2021/05/05 12:25:28;;;;;;;8.35;2.30;;;;;;;;;;10146669;28;20065;-58
2021/05/05 12:30:34;;;;;;;15.23;2.25;;;;;;;;;;10163809;28;20042;-60
2021/05/05 12:35:33;;;;;;;12.25;2.78;;;;;;;;;;10158087;28;20148;-61
2021/05/05 12:40:31;;;;;;;13.45;1.77;;;;;;;;;;10129486;28;20050;-64
2021/05/05 12:45:34;;;;;;;13.43;2.83;;;;;;;;;;10131308;28;20035;-59
2021/05/05 12:50:38;;;;;;;16.80;2.85;;;;;;;;;;10167321;28;20046;-60
2021/05/05 12:55:39;;;;;;;10.45;1.80;;;;;;;;;;10166216;28;20181;-61
2021/05/05 13:00:37;;;;;;;11.38;2.47;;;;;;;;;;10166054;28;20042;-61
2021/05/05 13:05:54;;;;;;;6.70;1.77;;;;;;;;;;10172694;28;20035;-62
2021/05/05 13:10:51;;;;;;;15.68;2.67;;;;;;;;;;10162796;28;20042;-65
2021/05/05 13:31:50;;;;;;;10.55;2.17;;;;;;;;;;10127497;28;20516;-62
2021/05/05 13:36:49;;;;;;;15.40;2.03;;;;;;;;;;10164129;28;20062;-61
2021/05/05 13:41:51;;;;;;;8.77;1.98;;;;;;;;;;10164348;28;20043;-62
2021/05/05 13:51:46;;;;;;;11.43;1.90;;;;;;;;;;10163931;28;20039;-61
2021/05/05 13:56:43;;;;;;;10.97;2.87;;;;;;;;;;10168874;28;20493;-63
2021/05/05 14:01:41;;;;;;;11.60;1.93;;;;;;;;;;10147044;28;20768;-62
2021/05/05 14:06:44;;;;;;;8.48;2.42;;;;;;;;;;10145818;28;20039;-62
2021/05/05 14:11:41;;;;;;;8.45;2.15;;;;;;;;;;10162486;28;20767;-63
2021/05/05 14:16:39;;;;;;;17.43;2.50;;;;;;;;;;10163009;28;20031;-65
2021/05/05 14:21:36;;;;;;;22.47;3.03;;;;;;;;;;10168918;28;20586;-62
2021/05/05 14:26:34;;;;;;;14.00;2.13;;;;;;;;;;10160540;28;20130;-62
2021/05/05 14:31:32;;;;;;;8.97;1.83;;;;;;;;;;10164514;28;20381;-64
2021/05/05 14:36:29;;;;;;;8.30;2.27;;;;;;;;;;10160779;28;20034;-61
2021/05/05 14:41:30;;;;;;;5.30;1.70;;;;;;;;;;10143684;28;20101;-62
2021/05/05 14:51:38;;;;;;;15.27;3.15;;;;;;;;;;10165183;28;20479;-59
2021/05/05 14:56:35;;;;;;;12.90;2.25;;;;;;;;;;10149578;28;20039;-65
2021/05/05 15:01:33;;;;;;;18.67;2.57;;;;;;;;;;10163355;28;20034;-60
2021/05/05 15:06:36;;;;;;;18.73;3.10;;;;;;;;;;10171280;28;20038;-61
2021/05/05 15:37:39;;;;;;;11.98;3.05;;;;;;;;;;10163869;28;20042;-59
2021/05/05 15:42:38;;;;;;;22.35;2.50;;;;;;;;;;10143671;28;20039;-61
2021/05/05 15:47:37;;;;;;;8.68;2.55;;;;;;;;;;10162690;28;20050;-65
2021/05/05 15:52:40;;;;;;;9.65;2.00;;;;;;;;;;10160816;28;20148;-62
2021/05/05 15:57:42;;;;;;;7.45;2.40;;;;;;;;;;10145635;28;20501;-64
2021/05/05 16:17:40;;;;;;;20.40;3.50;;;;;;;;;;10144238;28;20094;-64
2021/05/05 16:22:45;;;;;;;16.67;2.97;;;;;;;;;;10156527;28;20133;-65
2021/05/05 16:43:53;;;;;;;10.32;2.80;;;;;;;;;;10166209;28;20061;-62
2021/05/05 16:49:04;;;;;;;10.45;2.60;;;;;;;;;;10160079;28;20035;-62
2021/05/05 16:54:25;;;;;;;18.23;3.33;;;;;;;;;;10162738;28;20502;-60
2021/05/05 17:09:54;;;;;;;13.93;3.42;;;;;;;;;;10172929;28;20033;-61
2021/05/05 17:15:36;;;;;;;11.82;2.42;;;;;;;;;;10152323;28;20102;-61
2021/05/05 17:20:38;;;;;;;15.35;3.70;;;;;;;;;;10156731;28;20039;-61
2021/05/05 17:38:21;;;;;;;16.80;2.58;;;;;;;;;;10163876;28;20027;-64
2021/05/05 18:12:43;;;;;;;15.95;2.72;;;;;;;;;;10165878;28;20049;-64
2021/05/05 18:32:37;;;;;;;19.30;5.37;;;;;;;;;;10159416;28;20108;-62
2021/05/05 18:37:35;;;;;;;21.83;5.40;;;;;;;;;;10171695;28;20046;-65
2021/05/05 18:42:46;;;;;;;19.75;5.57;;;;;;;;;;10164258;28;20456;-63
2021/05/05 19:55:47;;;;;;;11.70;3.53;;;;;;;;;;10162057;28;20035;-61
2021/05/05 21:18:52;;;;;;;7.30;1.92;;;;;;;;;;10175490;28;20035;-63
2021/05/05 21:33:44;;;;;;;7.18;1.40;;;;;;;;;;10168690;28;20054;-64
2021/05/05 23:15:11;;;;;;;3.28;1.40;;;;;;;;;;10166927;28;20070;-61
